sensor_id;sensor_type;location;lat;lon;timestamp;temperature;humidity
3005;DHT22;1512;51.486;6.610;2024-01-10T00:02:45;-3.40;99.90
3005;DHT22;1512;51.486;6.610;2024-01-10T00:06:54;-3.40;99.90
3005;DHT22;1512;51.486;6.610;2024-01-10T00:11:03;-3.40;99.90
3005;DHT22;1512;51.486;6.610;2024-01-10T00:15:11;-3.40;99.90
3005;DHT22;1512;51.486;6.610;2024-01-10T00:19:39;-3.40;99.90
3005;DHT22;1512;51.486;6.610;2024-01-10T00:23:48;-3.40;99.90
3005;DHT22;1512;51.486;6.610;2024-01-10T00:27:57;-3.40;99.90
3005;DHT22;1512;51.486;6.610;2024-01-10T00:32:06;-3.40;99.90
3005;DHT22;1512;51.486;6.610;2024-01-10T00:36:34;-3.40;99.90
3005;DHT22;1512;51.486;6.610;2024-01-10T00:40:43;-3.40;99.90
3005;DHT22;1512;51.486;6.610;2024-01-10T00:44:51;-3.40;99.90
3005;DHT22;1512;51.486;6.610;2024-01-10T00:49:00;-3.40;99.90
3005;DHT22;1512;51.486;6.610;2024-01-10T00:53:09;-3.40;99.90
3005;DHT22;1512;51.486;6.610;2024-01-10T00:57:18;-3.40;99.90
3005;DHT22;1512;51.486;6.610;2024-01-10T01:01:26;-3.40;99.90
3005;DHT22;1512;51.486;6.610;2024-01-10T01:05:35;-3.40;99.90
3005;DHT22;1512;51.486;6.610;2024-01-10T01:09:44;-3.40;99.90
3005;DHT22;1512;51.486;6.610;2024-01-10T01:13:52;-3.50;99.90
3005;DHT22;1512;51.486;6.610;2024-01-10T01:18:01;-3.50;99.90
3005;DHT22;1512;51.486;6.610;2024-01-10T01:22:10;-3.50;99.90
3005;DHT22;1512;51.486;6.610;2024-01-10T01:26:19;-3.50;99.90
3005;DHT22;1512;51.486;6.610;2024-01-10T01:30:27;-3.50;99.90
3005;DHT22;1512;51.486;6.610;2024-01-10T01:34:55;-3.60;99.90
3005;DHT22;1512;51.486;6.610;2024-01-10T01:39:04;-3.60;99.90
3005;DHT22;1512;51.486;6.610;2024-01-10T01:47:49;-3.60;99.90
3005;DHT22;1512;51.486;6.610;2024-01-10T01:51:59;-3.60;99.90
3005;DHT22;1512;51.486;6.610;2024-01-10T01:56:09;-3.60;99.90
3005;DHT22;1512;51.486;6.610;2024-01-10T02:00:18;-3.60;99.90
3005;DHT22;1512;51.486;6.610;2024-01-10T02:04:27;-3.60;99.90
3005;DHT22;1512;51.486;6.610;2024-01-10T02:08:36;-3.60;99.90
3005;DHT22;1512;51.486;6.610;2024-01-10T02:12:46;-3.70;99.90
3005;DHT22;1512;51.486;6.610;2024-01-10T02:17:14;-3.70;99.90
3005;DHT22;1512;51.486;6.610;2024-01-10T02:21:23;-3.70;99.90
3005;DHT22;1512;51.486;6.610;2024-01-10T02:25:35;-3.70;99.90
3005;DHT22;1512;51.486;6.610;2024-01-10T02:29:43;-3.70;99.90
3005;DHT22;1512;51.486;6.610;2024-01-10T02:34:11;-3.70;99.90
3005;DHT22;1512;51.486;6.610;2024-01-10T02:38:20;-3.80;99.90
3005;DHT22;1512;51.486;6.610;2024-01-10T02:42:32;-3.80;99.90
3005;DHT22;1512;51.486;6.610;2024-01-10T02:46:41;-3.80;99.90
3005;DHT22;1512;51.486;6.610;2024-01-10T02:50:49;-3.90;99.90
3005;DHT22;1512;51.486;6.610;2024-01-10T02:54:58;-3.90;99.90
3005;DHT22;1512;51.486;6.610;2024-01-10T02:59:07;-3.90;99.90
3005;DHT22;1512;51.486;6.610;2024-01-10T03:03:15;-3.90;99.90
3005;DHT22;1512;51.486;6.610;2024-01-10T03:07:24;-4.00;99.90
3005;DHT22;1512;51.486;6.610;2024-01-10T03:11:33;-4.00;99.90
3005;DHT22;1512;51.486;6.610;2024-01-10T03:15:43;-4.00;99.90
3005;DHT22;1512;51.486;6.610;2024-01-10T03:20:11;-4.00;99.90
3005;DHT22;1512;51.486;6.610;2024-01-10T03:24:20;-4.00;99.90
3005;DHT22;1512;51.486;6.610;2024-01-10T03:28:30;-4.10;99.90
3005;DHT22;1512;51.486;6.610;2024-01-10T03:32:39;-4.10;99.90
3005;DHT22;1512;51.486;6.610;2024-01-10T03:36:48;-4.10;99.90
3005;DHT22;1512;51.486;6.610;2024-01-10T03:40:57;-4.10;99.90
3005;DHT22;1512;51.486;6.610;2024-01-10T03:49:29;-4.10;99.90
3005;DHT22;1512;51.486;6.610;2024-01-10T03:53:38;-4.10;99.90
3005;DHT22;1512;51.486;6.610;2024-01-10T03:57:46;-4.10;99.90
3005;DHT22;1512;51.486;6.610;2024-01-10T04:01:55;-4.20;99.90
3005;DHT22;1512;51.486;6.610;2024-01-10T04:06:04;-4.20;99.90
3005;DHT22;1512;51.486;6.610;2024-01-10T04:10:14;-4.20;99.90
3005;DHT22;1512;51.486;6.610;2024-01-10T04:14:42;-4.20;99.90
3005;DHT22;1512;51.486;6.610;2024-01-10T04:18:51;-4.20;99.90
3005;DHT22;1512;51.486;6.610;2024-01-10T04:22:59;-4.30;99.90
3005;DHT22;1512;51.486;6.610;2024-01-10T04:27:08;-4.30;99.90
3005;DHT22;1512;51.486;6.610;2024-01-10T04:31:17;-4.30;99.90
3005;DHT22;1512;51.486;6.610;2024-01-10T04:35:26;-4.30;99.90
3005;DHT22;1512;51.486;6.610;2024-01-10T04:39:35;-4.30;99.90
3005;DHT22;1512;51.486;6.610;2024-01-10T04:43:45;-4.30;99.90
3005;DHT22;1512;51.486;6.610;2024-01-10T04:47:54;-4.40;99.90
3005;DHT22;1512;51.486;6.610;2024-01-10T04:52:03;-4.40;99.90
3005;DHT22;1512;51.486;6.610;2024-01-10T04:56:11;-4.40;99.90
3005;DHT22;1512;51.486;6.610;2024-01-10T05:00:20;-4.40;99.90
3005;DHT22;1512;51.486;6.610;2024-01-10T05:04:29;-4.50;99.90
3005;DHT22;1512;51.486;6.610;2024-01-10T05:08:37;-4.50;99.90
3005;DHT22;1512;51.486;6.610;2024-01-10T05:12:46;-4.40;99.90
3005;DHT22;1512;51.486;6.610;2024-01-10T05:16:55;-4.40;99.90
3005;DHT22;1512;51.486;6.610;2024-01-10T05:21:04;-4.40;99.90
3005;DHT22;1512;51.486;6.610;2024-01-10T05:25:13;-4.40;99.90
3005;DHT22;1512;51.486;6.610;2024-01-10T05:29:22;-4.40;99.90
3005;DHT22;1512;51.486;6.610;2024-01-10T05:33:32;-4.40;99.90
3005;DHT22;1512;51.486;6.610;2024-01-10T05:37:41;-4.30;99.90
3005;DHT22;1512;51.486;6.610;2024-01-10T05:41:49;-4.30;99.90
3005;DHT22;1512;51.486;6.610;2024-01-10T05:45:59;-4.40;99.90
3005;DHT22;1512;51.486;6.610;2024-01-10T05:50:08;-4.40;99.90
3005;DHT22;1512;51.486;6.610;2024-01-10T05:54:17;-4.30;99.90
3005;DHT22;1512;51.486;6.610;2024-01-10T05:58:26;-4.30;99.90
3005;DHT22;1512;51.486;6.610;2024-01-10T06:02:36;-4.30;99.90
3005;DHT22;1512;51.486;6.610;2024-01-10T06:06:46;-4.30;99.90
3005;DHT22;1512;51.486;6.610;2024-01-10T06:10:55;-4.30;99.90
3005;DHT22;1512;51.486;6.610;2024-01-10T06:15:04;-4.30;99.90
3005;DHT22;1512;51.486;6.610;2024-01-10T06:19:14;-4.40;99.90
3005;DHT22;1512;51.486;6.610;2024-01-10T06:23:23;-4.40;99.90
3005;DHT22;1512;51.486;6.610;2024-01-10T06:27:32;-4.40;99.90
3005;DHT22;1512;51.486;6.610;2024-01-10T06:31:40;-4.40;99.90
3005;DHT22;1512;51.486;6.610;2024-01-10T06:35:49;-4.40;99.90
3005;DHT22;1512;51.486;6.610;2024-01-10T06:39:58;-4.40;99.90
3005;DHT22;1512;51.486;6.610;2024-01-10T06:44:26;-4.40;99.90
3005;DHT22;1512;51.486;6.610;2024-01-10T06:48:36;-4.40;99.90
3005;DHT22;1512;51.486;6.610;2024-01-10T06:52:46;-4.40;99.90
3005;DHT22;1512;51.486;6.610;2024-01-10T06:56:55;-4.40;99.90
3005;DHT22;1512;51.486;6.610;2024-01-10T07:01:04;-4.40;99.90
3005;DHT22;1512;51.486;6.610;2024-01-10T07:05:13;-4.40;99.90
3005;DHT22;1512;51.486;6.610;2024-01-10T07:09:22;-4.40;99.90
3005;DHT22;1512;51.486;6.610;2024-01-10T07:13:30;-4.40;99.90
3005;DHT22;1512;51.486;6.610;2024-01-10T07:17:39;-4.50;99.90
3005;DHT22;1512;51.486;6.610;2024-01-10T07:22:08;-4.50;99.90
3005;DHT22;1512;51.486;6.610;2024-01-10T07:26:18;-4.50;99.90
3005;DHT22;1512;51.486;6.610;2024-01-10T07:30:27;-4.50;99.90
3005;DHT22;1512;51.486;6.610;2024-01-10T07:34:38;-4.40;99.90
3005;DHT22;1512;51.486;6.610;2024-01-10T07:38:47;-4.50;99.90
3005;DHT22;1512;51.486;6.610;2024-01-10T07:42:57;-4.50;99.90
3005;DHT22;1512;51.486;6.610;2024-01-10T07:47:05;-4.50;99.90
3005;DHT22;1512;51.486;6.610;2024-01-10T07:51:15;-4.50;99.90
3005;DHT22;1512;51.486;6.610;2024-01-10T07:55:43;-4.50;99.90
3005;DHT22;1512;51.486;6.610;2024-01-10T07:59:52;-4.50;99.90
3005;DHT22;1512;51.486;6.610;2024-01-10T08:04:01;-4.50;99.90
3005;DHT22;1512;51.486;6.610;2024-01-10T08:08:10;-4.50;99.90
3005;DHT22;1512;51.486;6.610;2024-01-10T08:12:20;-4.40;99.90
3005;DHT22;1512;51.486;6.610;2024-01-10T08:16:29;-4.40;99.90
3005;DHT22;1512;51.486;6.610;2024-01-10T08:20:59;-4.40;99.90
3005;DHT22;1512;51.486;6.610;2024-01-10T08:25:07;-4.40;99.90
3005;DHT22;1512;51.486;6.610;2024-01-10T08:33:40;-4.30;99.90
3005;DHT22;1512;51.486;6.610;2024-01-10T08:37:49;-4.30;99.90
3005;DHT22;1512;51.486;6.610;2024-01-10T08:41:58;-4.30;99.90
3005;DHT22;1512;51.486;6.610;2024-01-10T08:46:08;-4.20;99.90
3005;DHT22;1512;51.486;6.610;2024-01-10T08:50:17;-4.10;99.90
3005;DHT22;1512;51.486;6.610;2024-01-10T08:54:26;-4.10;99.90
3005;DHT22;1512;51.486;6.610;2024-01-10T08:58:35;-4.00;99.90
3005;DHT22;1512;51.486;6.610;2024-01-10T09:02:44;-4.00;99.90
3005;DHT22;1512;51.486;6.610;2024-01-10T09:06:52;-3.90;99.90
3005;DHT22;1512;51.486;6.610;2024-01-10T09:11:01;-3.90;99.90
3005;DHT22;1512;51.486;6.610;2024-01-10T09:15:10;-3.80;99.90
3005;DHT22;1512;51.486;6.610;2024-01-10T09:19:21;-3.70;99.90
3005;DHT22;1512;51.486;6.610;2024-01-10T09:23:30;-3.70;99.90
3005;DHT22;1512;51.486;6.610;2024-01-10T09:27:39;-3.60;99.90
3005;DHT22;1512;51.486;6.610;2024-01-10T09:31:49;-3.50;99.90
3005;DHT22;1512;51.486;6.610;2024-01-10T09:35:58;-3.40;99.90
3005;DHT22;1512;51.486;6.610;2024-01-10T09:40:09;-3.40;99.90
3005;DHT22;1512;51.486;6.610;2024-01-10T09:44:21;-3.30;99.90
3005;DHT22;1512;51.486;6.610;2024-01-10T09:48:31;-3.30;99.90
3005;DHT22;1512;51.486;6.610;2024-01-10T09:52:51;-3.20;99.90
3005;DHT22;1512;51.486;6.610;2024-01-10T09:56:52;-3.20;99.90
3005;DHT22;1512;51.486;6.610;2024-01-10T10:01:01;-3.10;99.90
3005;DHT22;1512;51.486;6.610;2024-01-10T10:05:13;-3.00;99.90
3005;DHT22;1512;51.486;6.610;2024-01-10T10:09:24;-3.00;99.90
3005;DHT22;1512;51.486;6.610;2024-01-10T10:13:33;-2.90;99.90
3005;DHT22;1512;51.486;6.610;2024-01-10T10:17:47;-2.80;99.90
3005;DHT22;1512;51.486;6.610;2024-01-10T10:22:07;-2.80;99.90
3005;DHT22;1512;51.486;6.610;2024-01-10T10:26:13;-2.70;99.90
3005;DHT22;1512;51.486;6.610;2024-01-10T10:30:24;-2.70;99.90
3005;DHT22;1512;51.486;6.610;2024-01-10T10:34:33;-2.60;99.90
3005;DHT22;1512;51.486;6.610;2024-01-10T10:39:01;-2.50;99.90
3005;DHT22;1512;51.486;6.610;2024-01-10T10:43:13;-2.40;99.90
3005;DHT22;1512;51.486;6.610;2024-01-10T10:47:24;-2.30;99.90
3005;DHT22;1512;51.486;6.610;2024-01-10T10:51:34;-2.20;99.90
3005;DHT22;1512;51.486;6.610;2024-01-10T10:55:44;-2.10;99.90
3005;DHT22;1512;51.486;6.610;2024-01-10T10:59:56;-2.00;99.90
3005;DHT22;1512;51.486;6.610;2024-01-10T11:04:06;-1.90;99.90
3005;DHT22;1512;51.486;6.610;2024-01-10T11:08:17;-1.90;99.90
3005;DHT22;1512;51.486;6.610;2024-01-10T11:22:15;-1.70;99.90
3005;DHT22;1512;51.486;6.610;2024-01-10T11:26:20;-1.60;99.90
3005;DHT22;1512;51.486;6.610;2024-01-10T11:30:35;-1.50;99.90
3005;DHT22;1512;51.486;6.610;2024-01-10T11:34:59;-1.50;99.90
3005;DHT22;1512;51.486;6.610;2024-01-10T11:39:09;-1.40;99.90
3005;DHT22;1512;51.486;6.610;2024-01-10T11:43:39;-1.40;99.90
3005;DHT22;1512;51.486;6.610;2024-01-10T11:48:07;-1.30;99.90
3005;DHT22;1512;51.486;6.610;2024-01-10T11:52:16;-1.30;99.90
3005;DHT22;1512;51.486;6.610;2024-01-10T11:56:26;-1.30;99.90
3005;DHT22;1512;51.486;6.610;2024-01-10T12:00:39;-1.20;99.90
3005;DHT22;1512;51.486;6.610;2024-01-10T12:04:48;-1.10;99.90
3005;DHT22;1512;51.486;6.610;2024-01-10T12:08:58;-1.00;99.90
3005;DHT22;1512;51.486;6.610;2024-01-10T12:13:07;-1.00;99.90
3005;DHT22;1512;51.486;6.610;2024-01-10T12:17:15;-0.90;99.90
3005;DHT22;1512;51.486;6.610;2024-01-10T12:21:26;-0.90;99.90
3005;DHT22;1512;51.486;6.610;2024-01-10T12:25:34;-0.80;99.90
3005;DHT22;1512;51.486;6.610;2024-01-10T12:29:44;-0.70;99.90
3005;DHT22;1512;51.486;6.610;2024-01-10T12:34:00;-0.70;99.90
3005;DHT22;1512;51.486;6.610;2024-01-10T12:38:13;-0.60;99.90
3005;DHT22;1512;51.486;6.610;2024-01-10T12:42:22;-0.60;99.90
3005;DHT22;1512;51.486;6.610;2024-01-10T12:46:31;-0.50;99.90
3005;DHT22;1512;51.486;6.610;2024-01-10T12:50:40;-0.50;99.90
3005;DHT22;1512;51.486;6.610;2024-01-10T12:54:49;-0.40;99.90
3005;DHT22;1512;51.486;6.610;2024-01-10T12:58:58;-0.30;99.90
3005;DHT22;1512;51.486;6.610;2024-01-10T13:03:07;-0.30;99.90
3005;DHT22;1512;51.486;6.610;2024-01-10T13:07:16;-0.30;99.90
3005;DHT22;1512;51.486;6.610;2024-01-10T13:11:24;-0.20;99.90
3005;DHT22;1512;51.486;6.610;2024-01-10T13:15:33;-0.20;99.90
3005;DHT22;1512;51.486;6.610;2024-01-10T13:19:42;-0.20;99.90
3005;DHT22;1512;51.486;6.610;2024-01-10T13:23:53;-0.10;99.90
3005;DHT22;1512;51.486;6.610;2024-01-10T13:28:07;-0.10;99.90
3005;DHT22;1512;51.486;6.610;2024-01-10T13:32:12;0.00;99.90
3005;DHT22;1512;51.486;6.610;2024-01-10T13:36:22;-0.10;99.90
3005;DHT22;1512;51.486;6.610;2024-01-10T13:40:32;-0.10;99.90
3005;DHT22;1512;51.486;6.610;2024-01-10T13:44:41;0.00;99.90
3005;DHT22;1512;51.486;6.610;2024-01-10T13:48:50;0.10;99.90
3005;DHT22;1512;51.486;6.610;2024-01-10T13:52:59;0.10;99.90
3005;DHT22;1512;51.486;6.610;2024-01-10T13:57:07;0.10;99.90
3005;DHT22;1512;51.486;6.610;2024-01-10T14:01:16;0.10;99.90
3005;DHT22;1512;51.486;6.610;2024-01-10T14:05:26;0.10;99.90
3005;DHT22;1512;51.486;6.610;2024-01-10T14:09:35;0.10;99.90
3005;DHT22;1512;51.486;6.610;2024-01-10T14:13:43;0.10;99.90
3005;DHT22;1512;51.486;6.610;2024-01-10T14:17:52;0.00;99.90
3005;DHT22;1512;51.486;6.610;2024-01-10T14:22:01;-0.10;99.90
3005;DHT22;1512;51.486;6.610;2024-01-10T14:26:11;-0.10;99.90
3005;DHT22;1512;51.486;6.610;2024-01-10T14:30:20;-0.10;99.90
3005;DHT22;1512;51.486;6.610;2024-01-10T14:34:29;-0.20;99.90
3005;DHT22;1512;51.486;6.610;2024-01-10T14:38:39;-0.20;99.90
3005;DHT22;1512;51.486;6.610;2024-01-10T14:43:07;-0.30;99.90
3005;DHT22;1512;51.486;6.610;2024-01-10T14:47:15;-0.30;99.90
3005;DHT22;1512;51.486;6.610;2024-01-10T14:51:24;-0.30;99.90
3005;DHT22;1512;51.486;6.610;2024-01-10T14:55:34;-0.40;99.90
3005;DHT22;1512;51.486;6.610;2024-01-10T14:59:42;-0.40;99.90
3005;DHT22;1512;51.486;6.610;2024-01-10T15:03:52;-0.40;99.90
3005;DHT22;1512;51.486;6.610;2024-01-10T15:08:01;-0.40;99.90
3005;DHT22;1512;51.486;6.610;2024-01-10T15:12:30;-0.40;99.90
3005;DHT22;1512;51.486;6.610;2024-01-10T15:16:57;-0.40;99.90
3005;DHT22;1512;51.486;6.610;2024-01-10T15:21:08;-0.50;99.90
3005;DHT22;1512;51.486;6.610;2024-01-10T15:25:17;-0.50;99.90
3005;DHT22;1512;51.486;6.610;2024-01-10T15:29:25;-0.50;99.90
3005;DHT22;1512;51.486;6.610;2024-01-10T15:33:34;-0.50;99.90
3005;DHT22;1512;51.486;6.610;2024-01-10T15:37:44;-0.50;99.90
3005;DHT22;1512;51.486;6.610;2024-01-10T15:41:53;-0.60;99.90
3005;DHT22;1512;51.486;6.610;2024-01-10T15:46:03;-0.60;99.90
3005;DHT22;1512;51.486;6.610;2024-01-10T15:50:12;-0.70;99.90
3005;DHT22;1512;51.486;6.610;2024-01-10T15:54:21;-0.70;99.90
3005;DHT22;1512;51.486;6.610;2024-01-10T15:58:31;-0.70;99.90
3005;DHT22;1512;51.486;6.610;2024-01-10T16:02:40;-0.80;99.90
3005;DHT22;1512;51.486;6.610;2024-01-10T16:06:49;-0.80;99.90
3005;DHT22;1512;51.486;6.610;2024-01-10T16:10:58;-0.90;99.90
3005;DHT22;1512;51.486;6.610;2024-01-10T16:15:06;-0.90;99.90
3005;DHT22;1512;51.486;6.610;2024-01-10T16:19:15;-0.90;99.90
3005;DHT22;1512;51.486;6.610;2024-01-10T16:23:24;-1.00;99.90
3005;DHT22;1512;51.486;6.610;2024-01-10T16:27:32;-1.00;99.90
3005;DHT22;1512;51.486;6.610;2024-01-10T16:31:41;-1.00;99.90
3005;DHT22;1512;51.486;6.610;2024-01-10T16:35:51;-1.10;99.90
3005;DHT22;1512;51.486;6.610;2024-01-10T16:39:59;-1.10;99.90
3005;DHT22;1512;51.486;6.610;2024-01-10T16:44:08;-1.20;99.90
3005;DHT22;1512;51.486;6.610;2024-01-10T16:48:36;-1.20;99.90
3005;DHT22;1512;51.486;6.610;2024-01-10T16:52:45;-1.20;99.90
3005;DHT22;1512;51.486;6.610;2024-01-10T16:56:53;-1.20;99.90
3005;DHT22;1512;51.486;6.610;2024-01-10T17:01:02;-1.30;99.90
3005;DHT22;1512;51.486;6.610;2024-01-10T17:05:11;-1.30;99.90
3005;DHT22;1512;51.486;6.610;2024-01-10T17:09:20;-1.40;99.90
3005;DHT22;1512;51.486;6.610;2024-01-10T17:13:28;-1.40;99.90
3005;DHT22;1512;51.486;6.610;2024-01-10T17:17:37;-1.50;99.90
3005;DHT22;1512;51.486;6.610;2024-01-10T17:21:47;-1.50;99.90
3005;DHT22;1512;51.486;6.610;2024-01-10T17:25:56;-1.50;99.90
3005;DHT22;1512;51.486;6.610;2024-01-10T17:30:06;-1.50;99.90
3005;DHT22;1512;51.486;6.610;2024-01-10T17:34:15;-1.50;99.90
3005;DHT22;1512;51.486;6.610;2024-01-10T17:38:23;-1.60;99.90
3005;DHT22;1512;51.486;6.610;2024-01-10T17:42:32;-1.60;99.90
3005;DHT22;1512;51.486;6.610;2024-01-10T17:47:00;-1.60;99.90
3005;DHT22;1512;51.486;6.610;2024-01-10T17:51:09;-1.70;99.90
3005;DHT22;1512;51.486;6.610;2024-01-10T17:55:18;-1.70;99.90
3005;DHT22;1512;51.486;6.610;2024-01-10T17:59:29;-1.70;99.90
3005;DHT22;1512;51.486;6.610;2024-01-10T18:04:15;-1.70;99.90
3005;DHT22;1512;51.486;6.610;2024-01-10T18:08:24;-1.70;99.90
3005;DHT22;1512;51.486;6.610;2024-01-10T18:12:33;-1.70;99.90
3005;DHT22;1512;51.486;6.610;2024-01-10T18:16:41;-1.60;99.90
3005;DHT22;1512;51.486;6.610;2024-01-10T18:20:50;-1.60;99.90
3005;DHT22;1512;51.486;6.610;2024-01-10T18:25:18;-1.60;99.90
3005;DHT22;1512;51.486;6.610;2024-01-10T18:29:26;-1.70;99.90
3005;DHT22;1512;51.486;6.610;2024-01-10T18:33:35;-1.60;99.90
3005;DHT22;1512;51.486;6.610;2024-01-10T18:37:44;-1.60;99.90
3005;DHT22;1512;51.486;6.610;2024-01-10T18:41:53;-1.60;99.90
3005;DHT22;1512;51.486;6.610;2024-01-10T18:46:02;-1.60;99.90
3005;DHT22;1512;51.486;6.610;2024-01-10T18:50:11;-1.60;99.90
3005;DHT22;1512;51.486;6.610;2024-01-10T18:54:19;-1.70;99.90
3005;DHT22;1512;51.486;6.610;2024-01-10T18:58:28;-1.70;99.90
3005;DHT22;1512;51.486;6.610;2024-01-10T19:02:36;-1.70;99.90
3005;DHT22;1512;51.486;6.610;2024-01-10T19:06:45;-1.70;99.90
3005;DHT22;1512;51.486;6.610;2024-01-10T19:10:54;-1.70;99.90
3005;DHT22;1512;51.486;6.610;2024-01-10T19:15:03;-1.70;99.90
3005;DHT22;1512;51.486;6.610;2024-01-10T19:19:31;-1.70;99.90
3005;DHT22;1512;51.486;6.610;2024-01-10T19:23:41;-1.70;99.90
3005;DHT22;1512;51.486;6.610;2024-01-10T19:27:51;-1.80;99.90
3005;DHT22;1512;51.486;6.610;2024-01-10T19:32:02;-1.80;99.90
3005;DHT22;1512;51.486;6.610;2024-01-10T19:36:11;-1.80;99.90
3005;DHT22;1512;51.486;6.610;2024-01-10T19:40:19;-1.80;99.90
3005;DHT22;1512;51.486;6.610;2024-01-10T19:44:28;-1.80;99.90
3005;DHT22;1512;51.486;6.610;2024-01-10T19:48:37;-1.80;99.90
3005;DHT22;1512;51.486;6.610;2024-01-10T19:52:45;-1.90;99.90
3005;DHT22;1512;51.486;6.610;2024-01-10T19:56:54;-2.00;99.90
3005;DHT22;1512;51.486;6.610;2024-01-10T20:01:03;-2.00;99.90
3005;DHT22;1512;51.486;6.610;2024-01-10T20:05:12;-2.10;99.90
3005;DHT22;1512;51.486;6.610;2024-01-10T20:09:20;-2.10;99.90
3005;DHT22;1512;51.486;6.610;2024-01-10T20:13:29;-2.10;99.90
3005;DHT22;1512;51.486;6.610;2024-01-10T20:17:38;-2.10;99.90
3005;DHT22;1512;51.486;6.610;2024-01-10T20:21:46;-2.10;99.90
3005;DHT22;1512;51.486;6.610;2024-01-10T20:25:55;-2.20;99.90
3005;DHT22;1512;51.486;6.610;2024-01-10T20:30:04;-2.20;99.90
3005;DHT22;1512;51.486;6.610;2024-01-10T20:34:13;-2.20;99.90
3005;DHT22;1512;51.486;6.610;2024-01-10T20:38:23;-2.20;99.90
3005;DHT22;1512;51.486;6.610;2024-01-10T20:42:31;-2.20;99.90
3005;DHT22;1512;51.486;6.610;2024-01-10T20:46:40;-2.20;99.90
3005;DHT22;1512;51.486;6.610;2024-01-10T20:50:49;-2.20;99.90
3005;DHT22;1512;51.486;6.610;2024-01-10T20:54:58;-2.20;99.90
3005;DHT22;1512;51.486;6.610;2024-01-10T20:59:07;-2.30;99.90
3005;DHT22;1512;51.486;6.610;2024-01-10T21:03:16;-2.30;99.90
3005;DHT22;1512;51.486;6.610;2024-01-10T21:07:25;-2.30;99.90
3005;DHT22;1512;51.486;6.610;2024-01-10T21:11:33;-2.30;99.90
3005;DHT22;1512;51.486;6.610;2024-01-10T21:15:43;-2.30;99.90
3005;DHT22;1512;51.486;6.610;2024-01-10T21:19:52;-2.40;99.90
3005;DHT22;1512;51.486;6.610;2024-01-10T21:24:01;-2.40;99.90
3005;DHT22;1512;51.486;6.610;2024-01-10T21:28:09;-2.50;99.90
3005;DHT22;1512;51.486;6.610;2024-01-10T21:32:18;-2.50;99.90
3005;DHT22;1512;51.486;6.610;2024-01-10T21:36:27;-2.50;99.90
3005;DHT22;1512;51.486;6.610;2024-01-10T21:40:35;-2.50;99.90
3005;DHT22;1512;51.486;6.610;2024-01-10T21:44:44;-2.50;99.90
3005;DHT22;1512;51.486;6.610;2024-01-10T21:48:53;-2.60;99.90
3005;DHT22;1512;51.486;6.610;2024-01-10T21:53:01;-2.60;99.90
3005;DHT22;1512;51.486;6.610;2024-01-10T21:57:10;-2.60;99.90
3005;DHT22;1512;51.486;6.610;2024-01-10T22:01:20;-2.60;99.90
3005;DHT22;1512;51.486;6.610;2024-01-10T22:05:29;-2.60;99.90
3005;DHT22;1512;51.486;6.610;2024-01-10T22:09:38;-2.60;99.90
3005;DHT22;1512;51.486;6.610;2024-01-10T22:13:47;-2.60;99.90
3005;DHT22;1512;51.486;6.610;2024-01-10T22:17:55;-2.70;99.90
3005;DHT22;1512;51.486;6.610;2024-01-10T22:22:04;-2.70;99.90
3005;DHT22;1512;51.486;6.610;2024-01-10T22:26:13;-2.60;99.90
3005;DHT22;1512;51.486;6.610;2024-01-10T22:30:21;-2.70;99.90
3005;DHT22;1512;51.486;6.610;2024-01-10T22:38:52;-2.70;99.90
3005;DHT22;1512;51.486;6.610;2024-01-10T22:43:01;-2.70;99.90
3005;DHT22;1512;51.486;6.610;2024-01-10T22:47:29;-2.70;99.90
3005;DHT22;1512;51.486;6.610;2024-01-10T22:51:38;-2.80;99.90
3005;DHT22;1512;51.486;6.610;2024-01-10T22:55:47;-2.80;99.90
3005;DHT22;1512;51.486;6.610;2024-01-10T22:59:55;-2.80;99.90
3005;DHT22;1512;51.486;6.610;2024-01-10T23:04:04;-2.80;99.90
3005;DHT22;1512;51.486;6.610;2024-01-10T23:08:13;-2.80;99.90
3005;DHT22;1512;51.486;6.610;2024-01-10T23:12:21;-2.80;99.90
3005;DHT22;1512;51.486;6.610;2024-01-10T23:16:30;-2.80;99.90
3005;DHT22;1512;51.486;6.610;2024-01-10T23:20:39;-2.80;99.90
3005;DHT22;1512;51.486;6.610;2024-01-10T23:25:07;-2.90;99.90
3005;DHT22;1512;51.486;6.610;2024-01-10T23:29:18;-2.90;99.90
3005;DHT22;1512;51.486;6.610;2024-01-10T23:33:27;-2.90;99.90
3005;DHT22;1512;51.486;6.610;2024-01-10T23:37:55;-2.90;99.90
3005;DHT22;1512;51.486;6.610;2024-01-10T23:42:04;-2.90;99.90
3005;DHT22;1512;51.486;6.610;2024-01-10T23:46:13;-2.90;99.90
3005;DHT22;1512;51.486;6.610;2024-01-10T23:50:21;-2.90;99.90
3005;DHT22;1512;51.486;6.610;2024-01-10T23:54:30;-2.90;99.90
3005;DHT22;1512;51.486;6.610;2024-01-10T23:58:39;-2.90;99.90
